createdAt,value
2022-12-16T00:01:50.396Z,99669.22
2022-12-16T00:04:20.329Z,99665.81
2022-12-16T00:06:48.691Z,99664.91
2022-12-16T00:09:17.456Z,99663.22
2022-12-16T00:11:45.923Z,99658.22
2022-12-16T00:14:14.354Z,99668.41
2022-12-16T00:16:42.821Z,99663.22
2022-12-16T00:19:12.656Z,99661.25
2022-12-16T00:21:41.045Z,99652.72
2022-12-16T00:24:09.526Z,99655.91
2022-12-16T00:26:37.963Z,99648.91
2022-12-16T00:29:06.758Z,99643.72
2022-12-16T00:31:35.268Z,99651.47
2022-12-16T00:34:03.935Z,99653.16
2022-12-16T00:36:33.764Z,99655.00
2022-12-16T00:39:02.416Z,99649.81
2022-12-16T00:41:30.839Z,99650.72
2022-12-16T00:43:59.818Z,99646.47
2022-12-16T00:46:28.221Z,99639.50
2022-12-16T00:48:56.636Z,99634.34
2022-12-16T00:51:25.030Z,99634.19
2022-12-16T00:53:54.818Z,99633.25
2022-12-16T00:56:23.279Z,99618.72
2022-12-16T00:58:51.877Z,99630.94
2022-12-16T01:01:20.543Z,99626.72
2022-12-16T01:03:49.117Z,99623.38
2022-12-16T01:06:19.083Z,99625.31
2022-12-16T01:08:48.987Z,99608.91
2022-12-16T01:11:20.064Z,99597.91
2022-12-16T01:13:52.034Z,99601.41
2022-12-16T01:16:21.225Z,99582.38
2022-12-16T01:18:50.247Z,99578.84
2022-12-16T01:21:18.675Z,99590.03
2022-12-16T01:23:48.981Z,99580.84
2022-12-16T01:26:19.767Z,99584.03
2022-12-16T01:28:50.286Z,99590.03
2022-12-16T01:31:20.717Z,99597.75
2022-12-16T01:33:49.594Z,99602.75
2022-12-16T01:36:18.535Z,99595.75
2022-12-16T01:38:47.301Z,99598.19
2022-12-16T01:41:17.512Z,99587.72
2022-12-16T01:43:47.829Z,99590.09
2022-12-16T01:46:22.199Z,99598.78
2022-12-16T01:48:55.290Z,99582.88
2022-12-16T01:51:28.303Z,99590.31
2022-12-16T01:54:00.481Z,99593.75
2022-12-16T01:56:32.456Z,99590.91
2022-12-16T01:59:03.579Z,99596.09
2022-12-16T02:01:32.184Z,99584.91
2022-12-16T02:04:04.221Z,99571.88
2022-12-16T02:06:33.355Z,99570.03
2022-12-16T02:09:06.306Z,99572.72
2022-12-16T02:11:58.669Z,99564.03
2022-12-16T02:15:26.501Z,99563.94
2022-12-16T02:18:02.774Z,99558.53
2022-12-16T02:21:09.338Z,99557.44
2022-12-16T02:24:07.325Z,99546.31
2022-12-16T02:27:12.534Z,99546.84
2022-12-16T02:30:05.617Z,99552.84
2022-12-16T02:32:46.346Z,99548.59
2022-12-16T02:35:26.266Z,99532.28
2022-12-16T02:38:04.908Z,99537.25
2022-12-16T02:40:41.763Z,99523.28
2022-12-16T02:43:17.053Z,99524.94
2022-12-16T02:45:46.670Z,99521.38
2022-12-16T02:48:16.439Z,99532.47
2022-12-16T02:50:48.506Z,99527.19
2022-12-16T02:53:17.234Z,99522.94
2022-12-16T02:55:54.190Z,99525.19
2022-12-16T02:58:29.775Z,99533.47
2022-12-16T03:01:08.082Z,99532.41
2022-12-16T03:03:45.762Z,99540.81
2022-12-16T03:06:17.235Z,99544.16
2022-12-16T03:08:50.601Z,99534.88
2022-12-16T03:11:19.228Z,99538.16
2022-12-16T03:13:52.113Z,99531.97
2022-12-16T03:16:23.559Z,99520.66
2022-12-16T03:18:58.277Z,99515.47
2022-12-16T03:21:32.409Z,99507.53
2022-12-16T03:24:03.293Z,99497.91
2022-12-16T03:26:35.977Z,99493.66
2022-12-16T03:29:09.542Z,99489.16
2022-12-16T03:31:42.935Z,99485.72
2022-12-16T03:34:18.882Z,99486.28
2022-12-16T03:36:52.480Z,99488.69
2022-12-16T03:39:23.380Z,99492.97
2022-12-16T03:41:54.787Z,99484.25
2022-12-16T03:44:25.446Z,99479.25
2022-12-16T03:46:54.320Z,99487.94
2022-12-16T03:49:24.865Z,99486.09
2022-12-16T03:51:54.098Z,99489.44
2022-12-16T03:54:23.456Z,99491.13
2022-12-16T03:56:51.847Z,99498.16
2022-12-16T03:59:20.380Z,99489.44
2022-12-16T04:01:48.904Z,99504.19
2022-12-16T04:04:18.117Z,99486.97
2022-12-16T04:07:08.195Z,99485.19
2022-12-16T04:09:36.587Z,99503.09
2022-12-16T04:12:22.698Z,99507.34
2022-12-16T04:15:08.374Z,99508.00
2022-12-16T04:17:53.975Z,99512.38
2022-12-16T04:20:42.825Z,99520.22
2022-12-16T04:23:30.526Z,99522.06
2022-12-16T04:25:59.311Z,99521.25
2022-12-16T04:28:27.911Z,99527.19
2022-12-16T04:30:56.479Z,99532.25
2022-12-16T04:33:42.957Z,99505.53
2022-12-16T04:36:28.985Z,99522.06
2022-12-16T04:39:15.912Z,99521.31
2022-12-16T04:42:01.706Z,99524.81
2022-12-16T04:44:47.876Z,99522.22
2022-12-16T04:47:33.650Z,99535.13
2022-12-16T04:50:19.541Z,99538.47
2022-12-16T04:53:05.388Z,99525.69
2022-12-16T04:55:52.304Z,99532.59
2022-12-16T04:58:37.923Z,99530.00
2022-12-16T05:01:23.600Z,99529.09
2022-12-16T05:04:09.654Z,99533.34
2022-12-16T05:06:55.395Z,99532.44
2022-12-16T05:09:41.188Z,99543.56
2022-12-16T05:12:28.041Z,99545.78
2022-12-16T05:15:13.820Z,99539.69
2022-12-16T05:17:59.641Z,99530.81
2022-12-16T05:20:46.038Z,99523.13
2022-12-16T05:23:32.863Z,99523.03
2022-12-16T05:26:19.326Z,99521.38
2022-12-16T05:29:06.696Z,99511.16
2022-12-16T05:31:52.553Z,99508.56
2022-12-16T05:34:38.440Z,99517.03
2022-12-16T05:37:24.235Z,99508.97
2022-12-16T05:40:09.865Z,99507.97
2022-12-16T05:42:56.005Z,99499.16
2022-12-16T05:45:43.369Z,99487.78
2022-12-16T05:48:29.037Z,99487.72
2022-12-16T05:51:14.855Z,99477.50
2022-12-16T05:54:00.717Z,99479.16
2022-12-16T05:56:46.550Z,99473.97
2022-12-16T05:59:32.585Z,99473.97
2022-12-16T06:02:19.549Z,99479.03
2022-12-16T06:05:05.384Z,99470.13
2022-12-16T06:07:51.281Z,99469.22
2022-12-16T06:10:37.064Z,99472.56
2022-12-16T06:13:22.943Z,99471.81
2022-12-16T06:16:09.346Z,99469.94
2022-12-16T06:18:56.379Z,99473.28
2022-12-16T06:21:42.525Z,99475.88
2022-12-16T06:24:28.452Z,99484.31
2022-12-16T06:27:14.272Z,99480.03
2022-12-16T06:30:00.167Z,99483.13
2022-12-16T06:32:45.996Z,99484.63
2022-12-16T06:35:33.876Z,99486.47
2022-12-16T06:38:19.836Z,99485.38
2022-12-16T06:41:05.691Z,99490.38
2022-12-16T06:43:51.521Z,99490.28
2022-12-16T06:46:37.107Z,99490.94
2022-12-16T06:49:22.687Z,99490.09
2022-12-16T06:52:09.904Z,99489.16
2022-12-16T06:54:55.512Z,99490.94
2022-12-16T06:57:41.269Z,99500.47
2022-12-16T07:00:28.775Z,99492.78
2022-12-16T07:03:14.677Z,99500.47
2022-12-16T07:06:00.340Z,99504.66
2022-12-16T07:08:47.387Z,99520.88
2022-12-16T07:11:32.846Z,99510.31
2022-12-16T07:14:18.875Z,99510.13
2022-12-16T07:17:04.751Z,99504.13
2022-12-16T07:19:50.426Z,99503.25
2022-12-16T07:22:38.686Z,99509.47
2022-12-16T07:25:26.984Z,99516.88
2022-12-16T07:28:15.717Z,99518.38
2022-12-16T07:31:01.917Z,99513.19
2022-12-16T07:33:56.806Z,99517.34
2022-12-16T07:36:42.377Z,99524.03
2022-12-16T07:39:27.982Z,99519.69
2022-12-16T07:42:15.133Z,99517.84
2022-12-16T07:45:01.168Z,99513.38
2022-12-16T07:47:46.631Z,99514.13
2022-12-16T07:50:32.546Z,99512.47
2022-12-16T07:53:19.469Z,99526.19
2022-12-16T07:56:05.207Z,99525.50
2022-12-16T07:58:52.476Z,99535.44
2022-12-16T08:01:41.412Z,99539.31
2022-12-16T08:04:27.347Z,99545.25
2022-12-16T08:07:13.020Z,99551.91
2022-12-16T08:10:10.319Z,99553.56
2022-12-16T08:12:56.001Z,99531.31
2022-12-16T08:15:43.421Z,99517.41
2022-12-16T08:18:29.047Z,99531.31
2022-12-16T08:21:14.506Z,99527.31
2022-12-16T08:24:00.110Z,99522.63
2022-12-16T08:26:46.044Z,99519.75
2022-12-16T08:29:47.142Z,99533.06
2022-12-16T08:32:35.297Z,99530.66
2022-12-16T08:35:21.903Z,99533.63
2022-12-16T08:38:13.664Z,99538.00
2022-12-16T08:41:00.136Z,99550.22
2022-12-16T08:43:45.942Z,99558.28
2022-12-16T08:46:31.495Z,99566.16
2022-12-16T08:49:24.001Z,99558.91
2022-12-16T08:52:09.887Z,99559.13
2022-12-16T08:54:55.442Z,99562.53
2022-12-16T08:57:42.479Z,99563.84
2022-12-16T09:00:29.175Z,99573.25
2022-12-16T09:03:15.632Z,99565.00
2022-12-16T09:06:03.647Z,99575.47
2022-12-16T09:08:49.892Z,99571.09
2022-12-16T09:11:35.488Z,99582.38
2022-12-16T09:14:21.809Z,99591.00
2022-12-16T09:17:07.816Z,99597.59
2022-12-16T09:19:55.220Z,99595.50
2022-12-16T09:22:42.747Z,99598.09
2022-12-16T09:25:28.594Z,99599.97
2022-12-16T09:28:14.297Z,99609.19
2022-12-16T09:31:01.552Z,99601.84
2022-12-16T09:33:47.817Z,99601.84
2022-12-16T09:36:33.505Z,99606.69
2022-12-16T09:39:20.513Z,99608.66
2022-12-16T09:42:18.909Z,99625.50
2022-12-16T09:45:15.292Z,99612.06
2022-12-16T09:48:20.822Z,99616.50
2022-12-16T09:51:21.766Z,99624.03
2022-12-16T09:54:11.013Z,99623.69
2022-12-16T09:56:58.440Z,99623.50
2022-12-16T09:59:47.191Z,99618.16
2022-12-16T10:02:36.257Z,99621.44
2022-12-16T10:05:39.444Z,99611.31
2022-12-16T10:08:36.636Z,99616.50
2022-12-16T10:11:27.653Z,99611.47
2022-12-16T10:14:33.137Z,99592.00
2022-12-16T10:17:30.753Z,99602.31
2022-12-16T10:20:22.394Z,99584.53
2022-12-16T10:23:15.437Z,99593.72
2022-12-16T10:26:05.174Z,99596.88
2022-12-16T10:29:04.067Z,99611.16
2022-12-16T10:31:52.252Z,99617.47
2022-12-16T10:34:40.965Z,99629.31
2022-12-16T10:37:33.314Z,99610.22
2022-12-16T10:40:20.706Z,99613.94
2022-12-16T10:43:26.310Z,99617.84
2022-12-16T10:46:15.607Z,99622.50
2022-12-16T10:49:02.968Z,99626.41
2022-12-16T10:51:49.019Z,99626.59
2022-12-16T10:54:47.450Z,99631.78
2022-12-16T10:57:45.932Z,99617.13
2022-12-16T11:00:34.980Z,99629.94
2022-12-16T11:03:37.677Z,99621.31
2022-12-16T11:06:26.475Z,99629.66
2022-12-16T11:09:13.051Z,99622.31
2022-12-16T11:11:59.057Z,99622.13
2022-12-16T11:15:05.383Z,99625.13
2022-12-16T11:17:52.909Z,99631.34
2022-12-16T11:20:41.488Z,99629.19
2022-12-16T11:23:36.899Z,99638.25
2022-12-16T11:26:35.851Z,99640.47
2022-12-16T11:29:30.162Z,99629.53
2022-12-16T11:32:20.599Z,99629.25
2022-12-16T11:35:12.535Z,99631.19
2022-12-16T11:38:00.301Z,99625.97
2022-12-16T11:41:04.103Z,99622.00
2022-12-16T11:43:52.038Z,99607.81
2022-12-16T11:46:47.966Z,99591.69
2022-12-16T11:49:38.191Z,99601.16
2022-12-16T11:52:36.710Z,99581.88
2022-12-16T11:58:52.940Z,99564.16
2022-12-16T12:01:46.605Z,99558.41
2022-12-16T12:04:32.771Z,99572.69
2022-12-16T12:07:41.100Z,99577.34
2022-12-16T12:10:47.068Z,99586.13
2022-12-16T12:13:49.466Z,99599.81
2022-12-16T12:16:45.054Z,99629.31
2022-12-16T12:19:42.191Z,99623.59
2022-12-16T12:22:38.840Z,99628.38
2022-12-16T12:25:29.435Z,99634.69
2022-12-16T12:28:26.700Z,99649.59
2022-12-16T12:31:20.403Z,99650.44
2022-12-16T12:34:17.147Z,99653.41
2022-12-16T12:37:10.299Z,99656.63
2022-12-16T12:40:04.510Z,99664.00
2022-12-16T12:42:56.781Z,99655.63
2022-12-16T12:46:08.101Z,99655.06
2022-12-16T12:49:04.125Z,99657.84
2022-12-16T12:51:59.915Z,99656.50
2022-12-16T12:54:53.842Z,99657.31
2022-12-16T12:57:44.261Z,99663.50
2022-12-16T13:00:36.262Z,99651.09
2022-12-16T13:03:28.980Z,99646.22
2022-12-16T13:06:16.312Z,99647.53
2022-12-16T13:09:13.349Z,99657.72
2022-12-16T13:12:27.031Z,99660.16
2022-12-16T13:15:15.416Z,99669.41
2022-12-16T13:18:32.049Z,99671.66
2022-12-16T13:21:18.185Z,99681.72
2022-12-16T13:24:05.646Z,99679.22
2022-12-16T13:26:53.530Z,99693.47
2022-12-16T13:29:41.878Z,99695.72
2022-12-16T13:32:37.171Z,99686.91
2022-12-16T13:35:33.599Z,99691.28
2022-12-16T13:38:21.913Z,99691.81
2022-12-16T13:41:13.445Z,99690.78
2022-12-16T13:44:06.848Z,99690.97
2022-12-16T13:47:01.911Z,99695.59
2022-12-16T13:50:03.773Z,99700.13
2022-12-16T13:53:00.347Z,99716.19
2022-12-16T13:55:49.429Z,99712.84
2022-12-16T13:58:48.802Z,99728.44
2022-12-16T14:01:41.392Z,99721.03
2022-12-16T14:04:29.583Z,99719.69
2022-12-16T14:07:24.494Z,99727.59
2022-12-16T14:10:10.567Z,99724.41
2022-12-16T14:13:07.807Z,99731.09
2022-12-16T14:16:08.170Z,99741.66
2022-12-16T14:19:06.235Z,99743.84
2022-12-16T14:22:01.864Z,99745.59
2022-12-16T14:24:49.738Z,99756.16
2022-12-16T14:27:40.311Z,99763.75
2022-12-16T14:30:36.735Z,99770.38
2022-12-16T14:33:42.289Z,99779.25
2022-12-16T14:36:39.370Z,99788.47
2022-12-16T14:39:29.701Z,99791.41
2022-12-16T14:42:15.497Z,99806.72
2022-12-16T14:45:05.557Z,99805.72
2022-12-16T14:47:58.847Z,99808.16
2022-12-16T14:50:48.084Z,99809.31
2022-12-16T14:53:37.872Z,99809.88
2022-12-16T14:56:51.061Z,99811.31
2022-12-16T14:59:38.997Z,99813.91
2022-12-16T15:02:43.237Z,99822.47
2022-12-16T15:05:29.856Z,99818.50
2022-12-16T15:08:18.801Z,99822.47
2022-12-16T15:11:06.106Z,99832.94
2022-12-16T15:17:01.774Z,99834.69
2022-12-16T15:19:15.676Z,99836.72
2022-12-16T15:20:01.566Z,99844.00
2022-12-16T15:22:49.090Z,99848.28
2022-12-16T15:25:41.760Z,99840.81
2022-12-16T15:28:43.171Z,99860.75
2022-12-16T15:31:33.081Z,99860.50
2022-12-16T15:34:42.340Z,99871.72
2022-12-16T15:37:43.596Z,99877.34
2022-12-16T15:40:44.057Z,99874.56
2022-12-16T15:43:47.770Z,99881.59
2022-12-16T15:46:39.197Z,99881.59
2022-12-16T15:49:34.766Z,99887.38
2022-12-16T15:52:32.159Z,99896.50
2022-12-16T15:55:29.921Z,99895.69
2022-12-16T15:58:18.370Z,99891.31
2022-12-16T16:01:16.488Z,99891.25
2022-12-16T16:04:08.295Z,99884.97
2022-12-16T16:06:54.396Z,99888.31
2022-12-16T16:09:42.820Z,99908.50
2022-12-16T16:12:29.145Z,99913.47
2022-12-16T16:15:16.418Z,99914.41
2022-12-16T16:18:03.284Z,99917.66
2022-12-16T16:20:49.135Z,99921.00
2022-12-16T16:23:35.413Z,99910.88
2022-12-16T16:26:21.948Z,99914.81
2022-12-16T16:29:07.602Z,99915.56
2022-12-16T16:31:57.179Z,99915.56
2022-12-16T16:34:46.832Z,99919.66
2022-12-16T16:37:40.601Z,99936.59
2022-12-16T16:40:37.216Z,99944.97
2022-12-16T16:43:22.980Z,99954.44
2022-12-16T16:46:12.961Z,99959.66
2022-12-16T16:49:00.218Z,99959.66
2022-12-16T16:51:46.568Z,99965.59
2022-12-16T16:54:32.461Z,99972.31
2022-12-16T16:57:20.131Z,99979.09
2022-12-16T17:00:05.890Z,99982.69
2022-12-16T17:02:51.597Z,99980.94
2022-12-16T17:05:38.896Z,99975.16
2022-12-16T17:08:24.488Z,99988.56
2022-12-16T17:11:10.209Z,99983.03
2022-12-16T17:13:56.148Z,99989.00
2022-12-16T17:16:53.210Z,99998.56
2022-12-16T17:19:38.637Z,99987.47
2022-12-16T17:22:25.568Z,99978.16
2022-12-16T17:25:11.315Z,99975.56
2022-12-16T17:27:56.971Z,99985.03
2022-12-16T17:30:47.476Z,99987.72
2022-12-16T17:33:34.248Z,99986.69
2022-12-16T17:36:20.074Z,100007.31
2022-12-16T17:39:07.871Z,100014.56
2022-12-16T17:42:05.006Z,100022.09
2022-12-16T17:44:50.477Z,100020.41
2022-12-16T17:47:36.782Z,100018.56
2022-12-16T17:50:23.641Z,100020.41
2022-12-16T17:53:13.108Z,100022.94
2022-12-16T17:56:00.356Z,100020.16
2022-12-16T17:58:50.304Z,100024.41
2022-12-16T18:01:36.132Z,100024.94
2022-12-16T18:04:22.088Z,100021.34
2022-12-16T18:07:07.907Z,100019.06
2022-12-16T18:09:53.813Z,100019.38
2022-12-16T18:12:41.813Z,100016.84
2022-12-16T18:15:28.410Z,100022.41
2022-12-16T18:18:14.185Z,100020.25
2022-12-16T18:21:00.096Z,100021.66
2022-12-16T18:23:48.020Z,100022.69
2022-12-16T18:26:34.155Z,100038.00
2022-12-16T18:29:20.961Z,100034.31
2022-12-16T18:32:07.398Z,100042.88
2022-12-16T18:34:53.141Z,100051.53
2022-12-16T18:37:38.853Z,100054.56
2022-12-16T18:40:26.383Z,100061.34
2022-12-16T18:43:12.065Z,100058.56
2022-12-16T18:45:59.280Z,100057.59
2022-12-16T18:48:45.199Z,100055.75
2022-12-16T18:51:31.176Z,100056.50
2022-12-16T18:54:16.828Z,100071.25
2022-12-16T18:57:02.386Z,100059.34
2022-12-16T18:59:47.866Z,100067.13
2022-12-16T19:02:34.930Z,100066.53
2022-12-16T19:05:20.775Z,100057.81
2022-12-16T19:08:09.999Z,100062.19
2022-12-16T19:10:59.603Z,100062.75
2022-12-16T19:13:45.501Z,100058.41
2022-12-16T19:16:31.612Z,100067.78
2022-12-16T19:19:20.436Z,100073.72
2022-12-16T19:22:06.905Z,100064.25
2022-12-16T19:24:55.020Z,100070.63
2022-12-16T19:27:41.970Z,100065.44
2022-12-16T19:30:29.068Z,100083.41
2022-12-16T19:33:14.834Z,100086.31
2022-12-16T19:36:01.846Z,100100.13
2022-12-16T19:38:47.607Z,100104.53
2022-12-16T19:41:34.389Z,100121.19
2022-12-16T19:44:20.132Z,100116.28
2022-12-16T19:47:06.072Z,100124.59
2022-12-16T19:49:51.820Z,100126.06
2022-12-16T19:52:38.706Z,100124.69
2022-12-16T19:55:25.398Z,100133.41
2022-12-16T19:58:10.838Z,100132.63
2022-12-16T20:00:57.159Z,100145.75
2022-12-16T20:03:43.149Z,100145.16
2022-12-16T20:06:29.288Z,100147.75
2022-12-16T20:09:16.248Z,100146.69
2022-12-16T20:12:02.004Z,100160.34
2022-12-16T20:14:50.141Z,100167.16
2022-12-16T20:17:37.955Z,100162.72
2022-12-16T20:20:24.675Z,100158.19
2022-12-16T20:23:10.391Z,100168.81
2022-12-16T20:25:57.771Z,100168.34
2022-12-16T20:28:43.558Z,100174.22
2022-12-16T20:31:29.515Z,100174.38
2022-12-16T20:34:16.341Z,100179.28
2022-12-16T20:37:02.412Z,100176.66
2022-12-16T20:42:56.330Z,100184.09
2022-12-16T20:45:56.655Z,100184.69
2022-12-16T20:48:42.413Z,100175.69
2022-12-16T20:51:28.363Z,100187.91
2022-12-16T20:54:14.342Z,100202.19
2022-12-16T20:57:00.580Z,100197.69
2022-12-16T20:59:48.189Z,100208.25
2022-12-16T21:02:37.567Z,100217.38
2022-12-16T21:05:23.797Z,100211.47
2022-12-16T21:08:09.566Z,100218.72
2022-12-16T21:14:01.313Z,100231.84
2022-12-16T21:16:48.854Z,100216.75
2022-12-16T21:19:37.374Z,100222.88
2022-12-16T21:22:23.309Z,100233.88
2022-12-16T21:25:08.854Z,100229.94
2022-12-16T21:28:00.074Z,100232.38
2022-12-16T21:30:46.067Z,100236.50
2022-12-16T21:33:38.588Z,100240.59
2022-12-16T21:36:26.332Z,100236.34
2022-12-16T21:39:12.231Z,100240.84
2022-12-16T21:41:58.227Z,100240.56
2022-12-16T21:44:44.084Z,100243.78
2022-12-16T21:47:30.008Z,100253.63
2022-12-16T21:50:17.116Z,100245.41
2022-12-16T21:53:05.907Z,100269.69
2022-12-16T21:55:51.133Z,100269.03
2022-12-16T21:58:37.790Z,100279.94
2022-12-16T22:01:23.380Z,100283.88
2022-12-16T22:04:09.907Z,100287.19
2022-12-16T22:06:56.877Z,100291.09
2022-12-16T22:09:42.541Z,100292.16
2022-12-16T22:12:28.379Z,100304.06
2022-12-16T22:15:14.208Z,100296.22
2022-12-16T22:17:59.973Z,100293.09
2022-12-16T22:20:45.559Z,100303.34
2022-12-16T22:23:32.875Z,100303.47
2022-12-16T22:26:19.557Z,100312.34
2022-12-16T22:29:05.655Z,100316.53
2022-12-16T22:31:51.345Z,100306.03
2022-12-16T22:34:37.778Z,100314.25
2022-12-16T22:37:23.417Z,100314.13
2022-12-16T22:40:10.610Z,100317.44
2022-12-16T22:42:56.510Z,100321.91
2022-12-16T22:45:42.536Z,100320.50
2022-12-16T22:48:30.815Z,100317.44
2022-12-16T22:51:16.684Z,100325.91
2022-12-16T22:54:02.489Z,100326.81
2022-12-16T22:56:49.589Z,100322.75
2022-12-16T22:59:35.684Z,100336.50
2022-12-16T23:02:21.421Z,100333.91
2022-12-16T23:05:06.910Z,100329.50
2022-12-16T23:07:52.740Z,100329.41
2022-12-16T23:10:38.959Z,100326.44
2022-12-16T23:13:27.461Z,100320.72
2022-12-16T23:16:13.143Z,100322.16
2022-12-16T23:18:58.702Z,100326.56
2022-12-16T23:21:44.504Z,100336.41
2022-12-16T23:24:30.226Z,100323.03
2022-12-16T23:27:16.486Z,100339.84
2022-12-16T23:30:03.522Z,100336.69
2022-12-16T23:32:49.154Z,100343.41
2022-12-16T23:35:35.007Z,100346.91
2022-12-16T23:38:23.903Z,100347.50
2022-12-16T23:41:14.366Z,100356.47
2022-12-16T23:44:00.159Z,100356.91
2022-12-16T23:46:47.784Z,100358.19
2022-12-16T23:49:35.923Z,100370.63
2022-12-16T23:52:21.919Z,100373.97
2022-12-16T23:55:07.692Z,100364.69
2022-12-16T23:57:53.821Z,100373.69
